Latest Weather Observations for Ngayawili (Elcho Island)

IDD60801

Issued at 9:31 am CST Friday 29 July 2016 (issued every 30 minutes, with the page automatically refreshed every 10 minutes)

About weather observations | Map of weather stations | Latest weather observations for NT | Other Formats
Station Details ID: 014517 Name: NGAYAWILI Lat: -12.00 Lon: 135.57 Height: 8.1 m
Data from the previous 72 hours. | See also: Recent months at Ngayawili (Elcho Island)
Date/Time
CST
Temp
°C
App
Temp
°C
Dew
Point
°C
Rel
Hum
%
Delta-T
°C
Wind Press
QNH
hPa
Press
MSL
hPa
Rain since
9am
mm
Dir  Spd
km/h
Gust
km/h
Spd
kts
Gust
kts
29/09:30am 26.0 23.2 15.4 52 6.4 SE 24 39 13 21 1014.0 1013.9 0.0
29/09:00am 25.2 21.9 14.9 52 6.2 SE 26 43 14 23 1013.8 1013.7 0.0
29/08:30am 24.6 22.8 16.1 59 5.2 SE 20 32 11 17 1013.6 1013.5 0.0
29/08:00am 23.6 22.2 16.6 65 4.3 SE 19 26 10 14 1013.5 1013.4 0.0
29/07:30am 22.6 21.5 17.3 72 3.3 SSE 19 30 10 16 1013.2 1013.1 0.0
29/07:00am 22.3 20.8 17.7 75 2.9 SSE 22 30 12 16 1012.9 1012.8 0.0
29/06:30am 21.9 21.0 18.1 79 2.4 SSE 20 28 11 15 1012.7 1012.6 0.0
29/06:00am 21.8 20.5 18.2 80 2.2 SSE 22 30 12 16 1012.6 1012.5 0.0
29/05:30am 22.0 20.7 18.2 79 2.4 SSE 22 32 12 17 1012.4 1012.3 0.0
29/05:00am 22.1 20.9 18.3 79 2.4 SSE 22 33 12 18 1012.4 1012.3 0.0
29/04:30am 22.1 20.9 18.5 80 2.3 SSE 22 33 12 18 1012.5 1012.4 0.0
29/04:00am 22.0 20.4 18.4 80 2.3 SSE 24 32 13 17 1012.4 1012.3 0.0
29/03:30am 22.0 21.2 18.4 80 2.3 SSE 20 26 11 14 1012.7 1012.6 0.0
29/03:00am 22.4 21.6 18.4 78 2.5 SSE 20 32 11 17 1012.8 1012.7 0.0
29/02:30am 22.6 21.9 18.6 78 2.5 SSE 20 28 11 15 1013.1 1013.0 0.0
29/02:00am 22.6 22.0 18.8 79 2.4 SSE 20 30 11 16 1013.2 1013.1 0.0
29/01:30am 22.8 22.4 18.8 78 2.5 SSE 19 26 10 14 1013.6 1013.5 0.0
29/01:00am 23.1 23.4 18.8 77 2.7 SSE 15 24 8 13 1013.9 1013.8 0.0
29/12:30am 23.4 22.7 18.7 75 3.0 SSE 20 30 11 16 1014.1 1014.0 0.0
29/12:00am 23.5 23.1 18.8 75 3.0 SSE 19 26 10 14 1014.3 1014.3 0.0
 
Date/Time
CST
Temp
°C
App
Temp
°C
Dew
Point
°C
Rel
Hum
%
Delta-T
°C
Wind Press
QNH
hPa
Press
MSL
hPa
Rain since
9am
mm
Dir  Spd
km/h
Gust
km/h
Spd
kts
Gust
kts
28/11:30pm 23.6 23.1 18.7 74 3.1 SSE 19 28 10 15 1014.4 1014.4 0.0
28/11:00pm 23.8 23.0 18.4 72 3.4 SSE 20 28 11 15 1014.6 1014.6 0.0
28/10:30pm 24.0 23.2 18.4 71 3.5 SSE 20 33 11 18 1014.6 1014.6 0.0
28/10:00pm 24.2 23.4 18.4 70 3.7 SSE 20 35 11 19 1014.5 1014.5 0.0
28/09:30pm 24.2 23.3 18.2 69 3.8 SSE 20 32 11 17 1014.4 1014.4 0.0
28/09:00pm 24.3 23.6 18.2 68 3.8 SSE 19 32 10 17 1014.3 1014.3 0.0
28/08:30pm 24.5 23.5 18.0 67 4.1 SE 20 39 11 21 1014.2 1014.2 0.0
28/08:00pm 24.9 23.2 18.1 66 4.3 SSE 24 35 13 19 1013.8 1013.7 0.0
28/07:30pm 25.6 24.2 18.0 63 4.8 SSE 22 39 12 21 1013.2 1013.1 0.0
28/07:00pm 25.9 24.6 18.1 62 4.9 SE 22 35 12 19 1012.8 1012.7 0.0
28/06:30pm 26.2 24.7 17.8 60 5.3 SE 22 37 12 20 1012.5 1012.4 0.0
28/06:00pm 26.7 26.4 18.3 60 5.3 SE 17 37 9 20 1012.1 1012.0 0.0
28/05:30pm 27.5 26.3 18.5 58 5.8 ESE 22 35 12 19 1011.7 1011.6 0.0
28/05:00pm 28.2 27.6 18.9 57 6.0 ESE 20 35 11 19 1011.4 1011.3 0.0
28/04:30pm 28.6 28.1 19.0 56 6.2 ESE 20 33 11 18 1011.0 1010.9 0.0
28/04:00pm 28.8 28.1 18.6 54 6.6 ESE 20 37 11 20 1010.9 1010.8 0.0
28/03:30pm 28.9 28.1 18.4 53 6.7 ESE 20 33 11 18 1011.0 1010.9 0.0
28/03:00pm 29.2 28.2 18.9 53 6.7 E 22 33 12 18 1011.1 1011.0 0.0
28/02:30pm 29.3 27.8 17.8 50 7.3 E 22 35 12 19 1011.3 1011.2 0.0
28/02:00pm 30.0 28.4 17.5 47 7.9 SE 22 39 12 21 1011.7 1011.6 0.0
28/01:30pm 29.9 27.9 17.4 47 7.9 SE 24 39 13 21 1012.0 1011.9 0.0
28/01:00pm 29.8 27.4 17.3 47 7.9 SE 26 41 14 22 1012.4 1012.3 0.0
28/12:30pm 28.9 26.2 16.5 47 7.7 SE 26 44 14 24 1012.7 1012.6 0.0
28/12:00pm 28.8 25.9 17.0 49 7.4 SE 28 44 15 24 1013.2 1013.1 0.0
28/11:40am 28.0 24.8 16.3 49 7.2 SE 28 48 15 26 1013.5 1013.4 0.0
28/11:30am 28.2 24.8 16.8 50 7.1 SE 30 44 16 24 1013.6 1013.5 0.0
28/11:15am 27.6 24.4 16.2 49 7.0 SE 28 48 15 26 1013.7 1013.6 0.0
28/11:00am 27.3 23.5 16.6 52 6.6 SE 32 48 17 26 1013.9 1013.8 0.0
28/10:30am 26.7 23.2 16.6 54 6.3 SE 30 48 16 26 1014.4 1014.4 0.0
28/10:00am 26.2 22.4 16.7 56 5.9 SE 32 54 17 29 1014.6 1014.6 0.0
28/09:30am 25.4 21.7 16.0 56 5.7 SE 30 48 16 26 1014.6 1014.6 0.0
28/09:07am 24.9 21.3 15.2 54 5.8 SE 28 46 15 25 1014.8 1014.8 0.0
28/09:00am 24.8 21.1 15.1 54 5.8 SE 28 41 15 22 1014.8 1014.8 0.0
28/08:30am 24.0 20.5 14.4 55 5.7 SE 26 39 14 21 1014.5 1014.5 0.0
28/08:00am 23.4 20.6 14.4 57 5.3 SE 22 35 12 19 1014.5 1014.5 0.0
28/07:30am 22.5 20.2 14.6 61 4.7 SSE 20 33 11 18 1014.3 1014.3 0.0
28/07:00am 21.6 19.2 14.3 63 4.3 SSE 20 30 11 16 1014.0 1013.9 0.0
28/06:30am 21.4 18.9 14.1 63 4.2 SSE 20 28 11 15 1013.7 1013.6 0.0
28/06:00am 21.2 18.7 14.1 64 4.1 SSE 20 28 11 15 1013.5 1013.4 0.0
28/05:30am 21.1 19.3 14.5 66 3.9 SSE 17 24 9 13 1013.4 1013.3 0.0
28/05:00am 21.6 19.2 14.5 64 4.2 SSE 20 28 11 15 1013.2 1013.1 0.0
28/04:30am 21.2 19.1 14.8 67 3.8 SSE 19 24 10 13 1013.2 1013.1 0.0
28/04:00am 21.6 19.4 15.0 66 3.9 SSE 20 30 11 16 1013.1 1013.0 0.0
28/03:30am 20.9 19.3 15.9 73 3.0 SSE 19 26 10 14 1013.3 1013.2 0.0
28/03:00am 20.6 19.4 16.0 75 2.8 SSE 17 22 9 12 1013.3 1013.2 0.0
28/02:30am 20.3 19.3 15.7 75 2.7 SSE 15 20 8 11 1013.6 1013.5 0.0
28/02:00am 20.6 20.4 15.6 73 3.0 SSE 11 17 6 9 1013.9 1013.8 0.0
28/01:30am 20.9 20.6 15.4 71 3.3 SSE 11 15 6 8 1014.1 1014.0 0.0
28/01:00am 21.1 20.9 15.6 71 3.3 SSE 11 17 6 9 1014.4 1014.4 0.0
28/12:30am 21.3 20.8 15.8 71 3.3 SSE 13 20 7 11 1014.8 1014.8 0.0
28/12:00am 21.3 21.2 16.0 72 3.2 SE 11 17 6 9 1015.1 1015.1 0.0
 
Date/Time
CST
Temp
°C
App
Temp
°C
Dew
Point
°C
Rel
Hum
%
Delta-T
°C
Wind Press
QNH
hPa
Press
MSL
hPa
Rain since
9am
mm
Dir  Spd
km/h
Gust
km/h
Spd
kts
Gust
kts
27/11:30pm 21.6 21.6 16.3 72 3.2 SSE 11 13 6 7 1015.1 1015.1 0.0
27/11:00pm 21.8 21.9 16.5 72 3.2 SSE 11 19 6 10 1015.1 1015.1 0.0
27/10:30pm 22.3 21.8 16.8 71 3.4 SE 15 22 8 12 1015.3 1015.3 0.0
27/10:00pm 22.6 21.7 16.9 70 3.5 SSE 17 26 9 14 1015.2 1015.2 0.0
27/09:30pm 23.2 22.8 17.2 69 3.7 SSE 15 22 8 12 1015.1 1015.1 0.0
27/09:00pm 23.6 23.2 17.1 67 4.0 SSE 15 24 8 13 1014.9 1014.9 0.0
27/08:30pm 24.3 23.0 16.8 63 4.6 SSE 19 30 10 16 1014.6 1014.6 0.0
27/08:00pm 24.7 23.6 16.4 60 5.1 SE 17 33 9 18 1014.3 1014.3 0.0
27/07:30pm 24.9 24.2 16.3 59 5.3 SE 15 26 8 14 1013.8 1013.7 0.0
27/07:00pm 25.7 24.6 16.3 56 5.8 SE 17 28 9 15 1013.4 1013.3 0.0
27/06:30pm 26.3 24.5 16.0 53 6.3 SE 20 32 11 17 1013.2 1013.1 0.0
27/06:00pm 26.8 24.7 16.1 52 6.6 SE 22 35 12 19 1012.9 1012.8 0.0
27/05:30pm 27.0 25.6 16.9 54 6.3 ESE 20 33 11 18 1012.7 1012.6 0.0
27/05:00pm 27.7 26.6 17.3 53 6.5 ESE 19 30 10 16 1012.3 1012.2 0.0
27/04:30pm 28.1 26.8 17.3 52 6.8 ESE 20 32 11 17 1012.1 1012.0 0.0
27/04:00pm 28.4 26.6 17.0 50 7.1 ESE 22 39 12 21 1011.9 1011.8 0.0
27/03:30pm 29.3 27.7 17.5 49 7.5 ESE 22 44 12 24 1011.9 1011.8 0.0
27/03:05pm 29.1 26.3 17.3 49 7.4 ESE 28 46 15 25 1011.9 1011.8 0.0
27/03:00pm 29.4 27.1 16.6 46 8.0 ESE 24 39 13 21 1012.0 1011.9 0.0
27/02:30pm 29.0 26.8 16.9 48 7.6 ESE 24 48 13 26 1012.2 1012.1 0.0
27/02:00pm 29.5 27.0 17.0 47 7.9 ESE 26 43 14 23 1012.5 1012.4 0.0
27/01:30pm 29.9 27.6 16.7 45 8.3 ESE 24 39 13 21 1012.8 1012.7 0.0
27/01:00pm 29.6 26.8 18.1 50 7.4 SE 30 44 16 24 1013.1 1013.0 0.0
27/12:30pm 28.8 27.1 18.0 52 6.9 SE 24 39 13 21 1013.6 1013.5 0.0
27/12:00pm 28.5 26.6 18.6 55 6.4 SE 26 43 14 23 1013.9 1013.8 0.0
27/11:30am 27.2 26.4 19.3 62 5.1 SE 22 32 12 17 1014.4 1014.4 0.0
27/11:00am 27.4 26.8 19.7 63 5.0 SE 22 37 12 20 1014.7 1014.7 0.0
27/10:30am 26.8 25.7 19.4 64 4.8 SSE 24 37 13 20 1014.8 1014.8 0.0
27/10:00am 26.2 25.2 19.6 67 4.3 SSE 24 39 13 21 1015.1 1015.1 0.0
27/09:30am 25.1 23.8 19.0 69 3.9 SSE 24 35 13 19 1015.1 1015.1 0.0
27/09:00am 24.5 24.7 19.3 73 3.3 SE 17 32 9 17 1015.0 1015.0 0.0
27/08:30am 23.8 23.6 19.3 76 2.9 SSE 19 28 10 15 1014.6 1014.6 0.0
27/08:00am 22.2 22.8 20.3 89 1.2 SSE 17 20 9 11 1014.3 1014.3 0.0
27/07:30am 21.2 21.9 20.5 96 0.5 SSE 17 22 9 12 1013.8 1013.7 0.0
27/07:00am 20.9 21.9 20.2 96 0.4 SSE 15 20 8 11 1013.6 1013.5 0.0
27/06:30am 21.1 22.2 20.4 96 0.5 SSE 15 24 8 13 1013.3 1013.2 0.0
27/06:00am 21.2 22.3 20.4 95 0.5 SSE 15 20 8 11 1013.1 1013.0 0.0
27/05:30am 21.4 22.5 20.4 94 0.6 SSE 15 20 8 11 1012.9 1012.8 0.0
27/05:00am 21.5 22.2 20.5 94 0.6 SSE 17 26 9 14 1012.7 1012.6 0.0
27/04:30am 21.6 22.7 20.4 93 0.8 SSE 15 22 8 12 1012.6 1012.5 0.0
27/04:00am 21.6 22.9 20.2 92 0.9 SSE 13 19 7 10 1012.5 1012.4 0.0
27/03:30am 21.7 23.1 20.3 92 0.9 SSE 13 17 7 9 1012.7 1012.6 0.0
27/03:00am 21.7 23.0 20.2 91 1.0 SSE 13 20 7 11 1012.8 1012.7 0.0
27/02:30am 21.9 23.2 20.2 90 1.1 SSE 13 20 7 11 1013.0 1012.9 0.0
27/02:00am 22.0 22.9 20.1 89 1.2 SSE 15 20 8 11 1013.4 1013.3 0.0
27/01:30am 22.2 23.5 20.1 88 1.4 SSE 13 17 7 9 1013.6 1013.5 0.0
27/01:00am 22.5 23.9 20.4 88 1.4 SSE 13 20 7 11 1013.7 1013.6 0.0
27/12:30am 22.8 24.6 20.3 86 1.6 SSE 11 15 6 8 1014.0 1013.9 0.0
27/12:00am 23.1 24.4 20.2 84 1.9 SSE 13 20 7 11 1014.1 1014.0 0.0
 
Date/Time
CST
Temp
°C
App
Temp
°C
Dew
Point
°C
Rel
Hum
%
Delta-T
°C
Wind Press
QNH
hPa
Press
MSL
hPa
Rain since
9am
mm
Dir  Spd
km/h
Gust
km/h
Spd
kts
Gust
kts
26/11:30pm 23.5 24.5 20.2 82 2.1 SSE 15 20 8 11 1014.0 1013.9 0.0
26/11:00pm 23.9 24.4 20.0 79 2.5 SSE 17 26 9 14 1014.1 1014.0 0.0
26/10:30pm 24.2 25.0 19.9 77 2.8 SE 15 22 8 12 1014.2 1014.2 0.0
26/10:00pm 24.5 25.2 19.6 74 3.2 SE 15 30 8 16 1014.0 1013.9 0.0
26/09:30pm 24.9 25.9 19.5 72 3.5 SE 13 20 7 11 1013.7 1013.6 0.0
26/09:00pm 25.2 25.7 19.3 70 3.8 SE 15 24 8 13 1013.3 1013.2 0.0
26/08:30pm 25.5 25.9 18.9 67 4.2 SE 15 26 8 14 1013.1 1013.0 0.0
26/08:00pm 26.0 25.9 18.7 64 4.7 SE 17 30 9 16 1012.7 1012.6 0.0
26/07:30pm 26.1 26.4 18.8 64 4.7 ESE 15 24 8 13 1012.2 1012.1 0.0
26/07:00pm 26.5 26.3 18.6 62 5.0 ESE 17 24 9 13 1011.7 1011.6 0.0
26/06:30pm 27.0 26.8 18.6 60 5.4 ESE 17 26 9 14 1011.3 1011.2 0.0
26/06:00pm 27.8 27.3 17.9 54 6.3 E 17 26 9 14 1010.9 1010.8 0.0
26/05:30pm 28.7 29.0 17.9 52 6.9 E 13 24 7 13 1010.7 1010.6 0.0
26/05:00pm 29.2 28.3 17.7 50 7.3 E 19 30 10 16 1010.5 1010.4 0.0
26/04:30pm 29.8 29.0 17.9 48 7.6 E 19 32 10 17 1010.4 1010.3 0.0
26/04:00pm 30.7 30.2 17.7 45 8.3 ESE 17 32 9 17 1010.3 1010.2 0.0
26/03:30pm 30.7 29.9 17.0 43 8.7 ESE 17 26 9 14 1010.4 1010.3 0.0
26/03:00pm 31.3 30.7 17.6 44 8.8 E 17 28 9 15 1010.6 1010.5 0.0
26/02:30pm 31.2 29.6 17.5 44 8.7 SE 22 35 12 19 1010.8 1010.7 0.0
26/02:00pm 31.3 30.7 17.6 44 8.7 ESE 17 26 9 14 1011.2 1011.1 0.0
26/01:30pm 30.7 29.3 17.0 43 8.7 ESE 20 33 11 18 1011.4 1011.3 0.0
26/01:00pm 30.8 29.9 17.8 45 8.3 ESE 19 30 10 16 1011.8 1011.7 0.0
26/12:30pm 30.3 29.5 18.4 49 7.7 ESE 20 33 11 18 1012.3 1012.2 0.0
26/12:00pm 29.7 29.1 18.8 52 7.0 ESE 20 32 11 17 1012.6 1012.5 0.0
26/11:30am 29.8 29.3 19.2 53 6.9 SE 20 35 11 19 1013.1 1013.0 0.0
26/11:00am 28.8 27.9 19.1 55 6.3 SE 22 37 12 20 1013.5 1013.4 0.0
26/10:30am 27.8 27.6 20.6 65 4.7 SE 22 35 12 19 1013.8 1013.7 0.0
26/10:00am 26.9 27.3 21.0 70 3.9 SE 20 37 11 20 1014.0 1013.9 0.0

Other Formats:

Comma delimited format used in spreadsheet applications
http://www.bom.gov.au/fwo/IDD60801/IDD60801.95146.axf

JavaScript Object Notation format (JSON) in row-major order
http://www.bom.gov.au/fwo/IDD60801/IDD60801.95146.json